sensor_id;sensor_type;location;lat;lon;timestamp;temperature;humidity
41324;DHT22;27073;51.128;4.220;2023-07-13T00:02:06;17.20;95.90
41324;DHT22;27073;51.128;4.220;2023-07-13T00:04:32;17.20;96.00
41324;DHT22;27073;51.128;4.220;2023-07-13T00:06:58;17.20;97.50
41324;DHT22;27073;51.128;4.220;2023-07-13T00:09:24;17.10;98.80
41324;DHT22;27073;51.128;4.220;2023-07-13T00:11:52;17.20;97.60
41324;DHT22;27073;51.128;4.220;2023-07-13T00:14:18;17.30;96.70
41324;DHT22;27073;51.128;4.220;2023-07-13T00:16:44;17.30;96.10
41324;DHT22;27073;51.128;4.220;2023-07-13T00:19:12;17.20;96.50
41324;DHT22;27073;51.128;4.220;2023-07-13T00:21:39;17.10;98.10
41324;DHT22;27073;51.128;4.220;2023-07-13T00:24:06;17.00;99.10
41324;DHT22;27073;51.128;4.220;2023-07-13T00:26:32;17.00;99.30
41324;DHT22;27073;51.128;4.220;2023-07-13T00:28:58;16.90;99.90
41324;DHT22;27073;51.128;4.220;2023-07-13T00:31:24;16.90;99.90
41324;DHT22;27073;51.128;4.220;2023-07-13T00:33:49;16.90;99.90
41324;DHT22;27073;51.128;4.220;2023-07-13T00:36:16;16.90;99.90
41324;DHT22;27073;51.128;4.220;2023-07-13T00:38:42;16.90;99.90
41324;DHT22;27073;51.128;4.220;2023-07-13T00:41:07;16.80;99.90
41324;DHT22;27073;51.128;4.220;2023-07-13T00:43:33;16.90;99.90
41324;DHT22;27073;51.128;4.220;2023-07-13T00:46:25;16.80;99.90
41324;DHT22;27073;51.128;4.220;2023-07-13T00:48:53;16.70;99.90
41324;DHT22;27073;51.128;4.220;2023-07-13T00:51:25;16.70;99.90
41324;DHT22;27073;51.128;4.220;2023-07-13T00:53:54;16.70;99.90
41324;DHT22;27073;51.128;4.220;2023-07-13T00:56:22;16.60;99.90
41324;DHT22;27073;51.128;4.220;2023-07-13T00:58:48;16.70;99.90
41324;DHT22;27073;51.128;4.220;2023-07-13T01:01:13;16.60;99.90
41324;DHT22;27073;51.128;4.220;2023-07-13T01:03:40;16.60;99.90
41324;DHT22;27073;51.128;4.220;2023-07-13T01:06:07;16.60;99.90
41324;DHT22;27073;51.128;4.220;2023-07-13T01:08:32;16.60;99.90
41324;DHT22;27073;51.128;4.220;2023-07-13T01:11:00;16.60;99.90
41324;DHT22;27073;51.128;4.220;2023-07-13T01:13:25;16.60;99.90
41324;DHT22;27073;51.128;4.220;2023-07-13T01:15:52;16.60;99.90
41324;DHT22;27073;51.128;4.220;2023-07-13T01:18:24;16.50;99.90
41324;DHT22;27073;51.128;4.220;2023-07-13T01:20:58;16.60;99.90
41324;DHT22;27073;51.128;4.220;2023-07-13T01:23:25;16.60;99.90
41324;DHT22;27073;51.128;4.220;2023-07-13T01:25:52;16.50;99.90
41324;DHT22;27073;51.128;4.220;2023-07-13T01:28:18;16.50;99.90
41324;DHT22;27073;51.128;4.220;2023-07-13T01:30:45;16.50;99.90
41324;DHT22;27073;51.128;4.220;2023-07-13T01:33:13;16.30;99.90
41324;DHT22;27073;51.128;4.220;2023-07-13T01:35:39;16.40;99.90
41324;DHT22;27073;51.128;4.220;2023-07-13T01:38:05;16.20;99.90
41324;DHT22;27073;51.128;4.220;2023-07-13T01:40:31;16.30;99.90
41324;DHT22;27073;51.128;4.220;2023-07-13T01:42:58;16.30;99.90
41324;DHT22;27073;51.128;4.220;2023-07-13T01:45:24;16.30;99.90
41324;DHT22;27073;51.128;4.220;2023-07-13T01:47:49;16.40;99.90
41324;DHT22;27073;51.128;4.220;2023-07-13T01:50:15;16.40;99.90
41324;DHT22;27073;51.128;4.220;2023-07-13T01:52:41;16.40;99.90
41324;DHT22;27073;51.128;4.220;2023-07-13T01:55:07;16.60;99.90
41324;DHT22;27073;51.128;4.220;2023-07-13T01:57:33;16.50;99.90
41324;DHT22;27073;51.128;4.220;2023-07-13T01:59:59;16.40;99.90
41324;DHT22;27073;51.128;4.220;2023-07-13T02:02:25;16.30;99.90
41324;DHT22;27073;51.128;4.220;2023-07-13T02:04:50;16.30;99.90
41324;DHT22;27073;51.128;4.220;2023-07-13T02:07:16;16.40;99.90
41324;DHT22;27073;51.128;4.220;2023-07-13T02:09:43;16.50;99.90
41324;DHT22;27073;51.128;4.220;2023-07-13T02:12:09;16.40;99.90
41324;DHT22;27073;51.128;4.220;2023-07-13T02:14:35;16.30;99.90
41324;DHT22;27073;51.128;4.220;2023-07-13T02:17:00;16.30;99.90
41324;DHT22;27073;51.128;4.220;2023-07-13T02:19:26;16.20;99.90
41324;DHT22;27073;51.128;4.220;2023-07-13T02:21:52;16.30;99.90
41324;DHT22;27073;51.128;4.220;2023-07-13T02:24:17;16.20;99.90
41324;DHT22;27073;51.128;4.220;2023-07-13T02:26:45;16.20;99.90
41324;DHT22;27073;51.128;4.220;2023-07-13T02:29:11;16.20;99.90
41324;DHT22;27073;51.128;4.220;2023-07-13T02:31:36;16.10;99.90
41324;DHT22;27073;51.128;4.220;2023-07-13T02:34:02;16.10;99.90
41324;DHT22;27073;51.128;4.220;2023-07-13T02:36:30;16.10;99.90
41324;DHT22;27073;51.128;4.220;2023-07-13T02:38:57;16.10;99.90
41324;DHT22;27073;51.128;4.220;2023-07-13T02:41:23;16.10;99.90
41324;DHT22;27073;51.128;4.220;2023-07-13T02:43:49;16.20;99.90
41324;DHT22;27073;51.128;4.220;2023-07-13T02:46:14;16.20;99.90
41324;DHT22;27073;51.128;4.220;2023-07-13T02:48:40;16.30;99.90
41324;DHT22;27073;51.128;4.220;2023-07-13T02:51:07;16.20;99.90
41324;DHT22;27073;51.128;4.220;2023-07-13T02:53:33;16.20;99.90
41324;DHT22;27073;51.128;4.220;2023-07-13T02:55:59;16.10;99.90
41324;DHT22;27073;51.128;4.220;2023-07-13T02:58:25;16.20;99.90
41324;DHT22;27073;51.128;4.220;2023-07-13T03:00:51;16.10;99.90
41324;DHT22;27073;51.128;4.220;2023-07-13T03:03:17;16.00;99.90
41324;DHT22;27073;51.128;4.220;2023-07-13T03:05:44;16.00;99.90
41324;DHT22;27073;51.128;4.220;2023-07-13T03:08:11;16.10;99.90
41324;DHT22;27073;51.128;4.220;2023-07-13T03:10:38;16.10;99.90
41324;DHT22;27073;51.128;4.220;2023-07-13T03:13:07;16.10;99.90
41324;DHT22;27073;51.128;4.220;2023-07-13T03:15:33;16.00;99.90
41324;DHT22;27073;51.128;4.220;2023-07-13T03:17:59;16.00;99.90
41324;DHT22;27073;51.128;4.220;2023-07-13T03:20:28;16.00;99.90
41324;DHT22;27073;51.128;4.220;2023-07-13T03:22:53;16.20;99.90
41324;DHT22;27073;51.128;4.220;2023-07-13T03:25:20;16.20;99.90
41324;DHT22;27073;51.128;4.220;2023-07-13T03:27:45;16.10;99.90
41324;DHT22;27073;51.128;4.220;2023-07-13T03:30:11;16.10;99.90
41324;DHT22;27073;51.128;4.220;2023-07-13T03:32:37;16.10;99.90
41324;DHT22;27073;51.128;4.220;2023-07-13T03:35:04;16.30;99.90
41324;DHT22;27073;51.128;4.220;2023-07-13T03:37:31;16.30;99.90
41324;DHT22;27073;51.128;4.220;2023-07-13T03:39:57;16.30;99.90
41324;DHT22;27073;51.128;4.220;2023-07-13T03:42:23;16.30;99.90
41324;DHT22;27073;51.128;4.220;2023-07-13T03:44:48;16.60;99.90
41324;DHT22;27073;51.128;4.220;2023-07-13T03:47:18;16.40;99.90
41324;DHT22;27073;51.128;4.220;2023-07-13T03:49:47;16.20;99.90
41324;DHT22;27073;51.128;4.220;2023-07-13T03:52:13;16.10;99.90
41324;DHT22;27073;51.128;4.220;2023-07-13T03:54:38;16.10;99.90
41324;DHT22;27073;51.128;4.220;2023-07-13T03:57:05;16.20;99.90
41324;DHT22;27073;51.128;4.220;2023-07-13T03:59:33;16.30;99.90
41324;DHT22;27073;51.128;4.220;2023-07-13T04:02:01;16.30;99.90
41324;DHT22;27073;51.128;4.220;2023-07-13T04:04:27;16.30;99.90
41324;DHT22;27073;51.128;4.220;2023-07-13T04:06:53;16.20;99.90
41324;DHT22;27073;51.128;4.220;2023-07-13T04:09:18;16.30;99.90
41324;DHT22;27073;51.128;4.220;2023-07-13T04:11:44;16.40;99.90
41324;DHT22;27073;51.128;4.220;2023-07-13T04:14:10;16.40;99.90
41324;DHT22;27073;51.128;4.220;2023-07-13T04:16:36;16.40;99.90
41324;DHT22;27073;51.128;4.220;2023-07-13T04:19:01;16.40;99.90
41324;DHT22;27073;51.128;4.220;2023-07-13T04:21:28;16.40;99.90
41324;DHT22;27073;51.128;4.220;2023-07-13T04:23:54;16.50;99.90
41324;DHT22;27073;51.128;4.220;2023-07-13T04:26:20;16.50;99.90
41324;DHT22;27073;51.128;4.220;2023-07-13T04:28:47;16.30;99.90
41324;DHT22;27073;51.128;4.220;2023-07-13T04:31:14;16.20;99.90
41324;DHT22;27073;51.128;4.220;2023-07-13T04:33:39;16.20;99.90
41324;DHT22;27073;51.128;4.220;2023-07-13T04:36:06;16.10;99.90
41324;DHT22;27073;51.128;4.220;2023-07-13T04:38:33;16.40;99.90
41324;DHT22;27073;51.128;4.220;2023-07-13T04:41:01;16.40;99.90
41324;DHT22;27073;51.128;4.220;2023-07-13T04:43:28;16.30;99.90
41324;DHT22;27073;51.128;4.220;2023-07-13T04:45:54;16.20;99.90
41324;DHT22;27073;51.128;4.220;2023-07-13T04:48:20;16.30;99.90
41324;DHT22;27073;51.128;4.220;2023-07-13T04:50:47;16.30;99.90
41324;DHT22;27073;51.128;4.220;2023-07-13T04:53:13;16.30;99.90
41324;DHT22;27073;51.128;4.220;2023-07-13T04:55:40;16.50;99.90
41324;DHT22;27073;51.128;4.220;2023-07-13T04:58:06;16.50;99.90
41324;DHT22;27073;51.128;4.220;2023-07-13T05:00:32;16.60;99.90
41324;DHT22;27073;51.128;4.220;2023-07-13T05:02:58;16.60;99.90
41324;DHT22;27073;51.128;4.220;2023-07-13T05:05:25;16.60;99.90
41324;DHT22;27073;51.128;4.220;2023-07-13T05:07:52;16.80;99.90
41324;DHT22;27073;51.128;4.220;2023-07-13T05:10:18;16.70;99.90
41324;DHT22;27073;51.128;4.220;2023-07-13T05:12:44;16.80;99.90
41324;DHT22;27073;51.128;4.220;2023-07-13T05:15:10;16.80;99.90
41324;DHT22;27073;51.128;4.220;2023-07-13T05:17:36;17.00;99.90
41324;DHT22;27073;51.128;4.220;2023-07-13T05:20:05;16.90;99.90
41324;DHT22;27073;51.128;4.220;2023-07-13T05:22:31;16.90;99.90
41324;DHT22;27073;51.128;4.220;2023-07-13T05:24:56;16.70;99.90
41324;DHT22;27073;51.128;4.220;2023-07-13T05:27:22;16.70;99.90
41324;DHT22;27073;51.128;4.220;2023-07-13T05:29:49;16.70;99.90
41324;DHT22;27073;51.128;4.220;2023-07-13T05:32:15;16.70;99.90
41324;DHT22;27073;51.128;4.220;2023-07-13T05:34:40;16.50;99.90
41324;DHT22;27073;51.128;4.220;2023-07-13T05:37:07;16.50;99.90
41324;DHT22;27073;51.128;4.220;2023-07-13T05:39:33;16.60;99.90
41324;DHT22;27073;51.128;4.220;2023-07-13T05:41:58;16.80;99.90
41324;DHT22;27073;51.128;4.220;2023-07-13T05:44:24;16.80;99.90
41324;DHT22;27073;51.128;4.220;2023-07-13T05:46:50;16.70;99.90
41324;DHT22;27073;51.128;4.220;2023-07-13T05:49:15;16.70;99.90
41324;DHT22;27073;51.128;4.220;2023-07-13T05:51:43;16.70;99.90
41324;DHT22;27073;51.128;4.220;2023-07-13T05:54:09;16.80;99.90
41324;DHT22;27073;51.128;4.220;2023-07-13T05:56:35;16.90;99.90
41324;DHT22;27073;51.128;4.220;2023-07-13T05:59:00;16.70;99.90
41324;DHT22;27073;51.128;4.220;2023-07-13T06:01:26;16.80;99.90
41324;DHT22;27073;51.128;4.220;2023-07-13T06:03:51;16.80;99.90
41324;DHT22;27073;51.128;4.220;2023-07-13T06:06:17;16.80;99.90
41324;DHT22;27073;51.128;4.220;2023-07-13T06:08:43;16.80;99.90
41324;DHT22;27073;51.128;4.220;2023-07-13T06:11:22;17.00;99.90
41324;DHT22;27073;51.128;4.220;2023-07-13T06:13:48;17.00;99.90
41324;DHT22;27073;51.128;4.220;2023-07-13T06:16:15;17.10;99.90
41324;DHT22;27073;51.128;4.220;2023-07-13T06:18:41;17.00;99.90
41324;DHT22;27073;51.128;4.220;2023-07-13T06:21:15;17.00;99.90
41324;DHT22;27073;51.128;4.220;2023-07-13T06:23:42;16.90;99.90
41324;DHT22;27073;51.128;4.220;2023-07-13T06:26:08;17.10;99.90
41324;DHT22;27073;51.128;4.220;2023-07-13T06:28:35;17.10;99.90
41324;DHT22;27073;51.128;4.220;2023-07-13T06:31:04;17.10;99.90
41324;DHT22;27073;51.128;4.220;2023-07-13T06:33:30;17.10;99.90
41324;DHT22;27073;51.128;4.220;2023-07-13T06:35:55;17.00;99.90
41324;DHT22;27073;51.128;4.220;2023-07-13T06:38:21;17.10;99.90
41324;DHT22;27073;51.128;4.220;2023-07-13T06:40:47;17.20;99.90
41324;DHT22;27073;51.128;4.220;2023-07-13T06:43:13;17.30;99.90
41324;DHT22;27073;51.128;4.220;2023-07-13T06:45:45;17.30;99.90
41324;DHT22;27073;51.128;4.220;2023-07-13T06:48:19;17.20;99.90
41324;DHT22;27073;51.128;4.220;2023-07-13T06:50:46;17.30;99.90
41324;DHT22;27073;51.128;4.220;2023-07-13T06:53:12;17.30;99.90
41324;DHT22;27073;51.128;4.220;2023-07-13T06:55:38;17.40;99.90
41324;DHT22;27073;51.128;4.220;2023-07-13T06:58:04;17.40;99.90
41324;DHT22;27073;51.128;4.220;2023-07-13T07:00:31;17.70;99.90
41324;DHT22;27073;51.128;4.220;2023-07-13T07:02:57;17.70;99.90
41324;DHT22;27073;51.128;4.220;2023-07-13T07:05:23;17.90;99.90
41324;DHT22;27073;51.128;4.220;2023-07-13T07:07:54;18.00;99.90
41324;DHT22;27073;51.128;4.220;2023-07-13T07:10:20;18.10;99.90
41324;DHT22;27073;51.128;4.220;2023-07-13T07:12:46;18.20;99.90
41324;DHT22;27073;51.128;4.220;2023-07-13T07:15:12;18.20;99.90
41324;DHT22;27073;51.128;4.220;2023-07-13T07:17:38;18.30;99.90
41324;DHT22;27073;51.128;4.220;2023-07-13T07:20:04;18.40;99.90
41324;DHT22;27073;51.128;4.220;2023-07-13T07:22:30;18.40;99.90
41324;DHT22;27073;51.128;4.220;2023-07-13T07:24:57;18.10;99.90
41324;DHT22;27073;51.128;4.220;2023-07-13T07:27:23;18.00;99.90
41324;DHT22;27073;51.128;4.220;2023-07-13T07:29:49;18.20;99.90
41324;DHT22;27073;51.128;4.220;2023-07-13T07:32:14;18.20;99.90
41324;DHT22;27073;51.128;4.220;2023-07-13T07:34:40;18.20;99.90
41324;DHT22;27073;51.128;4.220;2023-07-13T07:37:06;18.10;99.90
41324;DHT22;27073;51.128;4.220;2023-07-13T07:39:31;18.10;99.90
41324;DHT22;27073;51.128;4.220;2023-07-13T07:41:57;18.30;99.90
41324;DHT22;27073;51.128;4.220;2023-07-13T07:44:23;18.20;99.90
41324;DHT22;27073;51.128;4.220;2023-07-13T07:46:49;18.20;99.90
41324;DHT22;27073;51.128;4.220;2023-07-13T07:49:15;18.20;99.90
41324;DHT22;27073;51.128;4.220;2023-07-13T07:51:40;18.20;99.90
41324;DHT22;27073;51.128;4.220;2023-07-13T07:54:06;18.30;99.90
41324;DHT22;27073;51.128;4.220;2023-07-13T07:56:32;18.20;99.00
41324;DHT22;27073;51.128;4.220;2023-07-13T07:58:58;18.10;98.30
41324;DHT22;27073;51.128;4.220;2023-07-13T08:01:24;18.10;99.70
41324;DHT22;27073;51.128;4.220;2023-07-13T08:03:50;18.20;99.90
41324;DHT22;27073;51.128;4.220;2023-07-13T08:06:16;18.30;99.00
41324;DHT22;27073;51.128;4.220;2023-07-13T08:08:42;18.30;98.90
41324;DHT22;27073;51.128;4.220;2023-07-13T08:11:08;18.40;98.30
41324;DHT22;27073;51.128;4.220;2023-07-13T08:13:34;18.40;97.60
41324;DHT22;27073;51.128;4.220;2023-07-13T08:16:00;18.40;97.60
41324;DHT22;27073;51.128;4.220;2023-07-13T08:18:26;18.40;97.50
41324;DHT22;27073;51.128;4.220;2023-07-13T08:20:54;18.70;95.70
41324;DHT22;27073;51.128;4.220;2023-07-13T08:23:22;18.80;94.80
41324;DHT22;27073;51.128;4.220;2023-07-13T08:25:52;18.80;92.30
41324;DHT22;27073;51.128;4.220;2023-07-13T08:28:20;18.90;93.00
41324;DHT22;27073;51.128;4.220;2023-07-13T08:30:46;19.10;93.30
41324;DHT22;27073;51.128;4.220;2023-07-13T08:33:21;19.10;87.10
41324;DHT22;27073;51.128;4.220;2023-07-13T08:35:48;19.10;84.20
41324;DHT22;27073;51.128;4.220;2023-07-13T08:38:15;19.10;86.80
41324;DHT22;27073;51.128;4.220;2023-07-13T08:40:42;19.20;79.70
41324;DHT22;27073;51.128;4.220;2023-07-13T08:43:18;19.40;83.60
41324;DHT22;27073;51.128;4.220;2023-07-13T08:46:13;19.40;84.90
41324;DHT22;27073;51.128;4.220;2023-07-13T08:48:50;19.40;84.90
41324;DHT22;27073;51.128;4.220;2023-07-13T08:53:53;19.50;86.30
41324;DHT22;27073;51.128;4.220;2023-07-13T08:56:29;19.70;81.30
41324;DHT22;27073;51.128;4.220;2023-07-13T08:59:02;20.00;78.80
41324;DHT22;27073;51.128;4.220;2023-07-13T09:04:39;20.20;66.90
41324;DHT22;27073;51.128;4.220;2023-07-13T09:07:18;20.00;60.40
41324;DHT22;27073;51.128;4.220;2023-07-13T09:10:01;20.10;70.00
41324;DHT22;27073;51.128;4.220;2023-07-13T09:15:31;20.10;67.40
41324;DHT22;27073;51.128;4.220;2023-07-13T09:18:07;20.00;62.60
41324;DHT22;27073;51.128;4.220;2023-07-13T09:23:28;20.30;54.30
41324;DHT22;27073;51.128;4.220;2023-07-13T09:26:18;20.40;60.50
41324;DHT22;27073;51.128;4.220;2023-07-13T09:28:50;20.70;54.80
41324;DHT22;27073;51.128;4.220;2023-07-13T09:31:22;20.60;43.30
41324;DHT22;27073;51.128;4.220;2023-07-13T09:33:49;20.80;33.10
41324;DHT22;27073;51.128;4.220;2023-07-13T09:36:23;21.00;28.10
41324;DHT22;27073;51.128;4.220;2023-07-13T09:41:57;20.80;44.10
41324;DHT22;27073;51.128;4.220;2023-07-13T09:44:55;20.70;46.90
41324;DHT22;27073;51.128;4.220;2023-07-13T09:47:27;20.80;40.50
41324;DHT22;27073;51.128;4.220;2023-07-13T09:50:03;20.70;33.40
41324;DHT22;27073;51.128;4.220;2023-07-13T09:52:48;20.50;33.00
41324;DHT22;27073;51.128;4.220;2023-07-13T09:55:30;20.60;33.20
41324;DHT22;27073;51.128;4.220;2023-07-13T09:57:56;20.70;20.00
41324;DHT22;27073;51.128;4.220;2023-07-13T10:00:28;20.70;14.60
41324;DHT22;27073;51.128;4.220;2023-07-13T10:03:17;20.70;15.20
41324;DHT22;27073;51.128;4.220;2023-07-13T10:05:45;20.70;14.00
41324;DHT22;27073;51.128;4.220;2023-07-13T10:08:28;20.60;2.60
41324;DHT22;27073;51.128;4.220;2023-07-13T10:11:23;20.60;3.80
41324;DHT22;27073;51.128;4.220;2023-07-13T10:14:20;20.60;1.00
41324;DHT22;27073;51.128;4.220;2023-07-13T10:16:46;20.70;1.00
41324;DHT22;27073;51.128;4.220;2023-07-13T10:19:14;20.90;1.00
41324;DHT22;27073;51.128;4.220;2023-07-13T10:22:01;21.10;1.00
41324;DHT22;27073;51.128;4.220;2023-07-13T10:24:33;21.10;1.00
41324;DHT22;27073;51.128;4.220;2023-07-13T10:29:39;21.00;1.00
41324;DHT22;27073;51.128;4.220;2023-07-13T10:32:12;21.10;1.00
41324;DHT22;27073;51.128;4.220;2023-07-13T10:34:40;21.20;1.00
41324;DHT22;27073;51.128;4.220;2023-07-13T10:37:15;21.20;1.00
41324;DHT22;27073;51.128;4.220;2023-07-13T10:39:42;21.30;1.00
41324;DHT22;27073;51.128;4.220;2023-07-13T10:42:11;21.40;1.00
41324;DHT22;27073;51.128;4.220;2023-07-13T10:44:38;21.50;1.00
41324;DHT22;27073;51.128;4.220;2023-07-13T10:47:08;21.40;1.00
41324;DHT22;27073;51.128;4.220;2023-07-13T10:49:37;21.40;1.00
41324;DHT22;27073;51.128;4.220;2023-07-13T10:52:04;21.50;1.00
41324;DHT22;27073;51.128;4.220;2023-07-13T10:54:32;21.70;1.00
41324;DHT22;27073;51.128;4.220;2023-07-13T10:59:45;21.90;99.90
41324;DHT22;27073;51.128;4.220;2023-07-13T11:02:26;22.00;99.90
41324;DHT22;27073;51.128;4.220;2023-07-13T11:04:53;21.70;99.90
41324;DHT22;27073;51.128;4.220;2023-07-13T11:07:31;21.70;1.00
41324;DHT22;27073;51.128;4.220;2023-07-13T11:10:02;22.00;1.00
41324;DHT22;27073;51.128;4.220;2023-07-13T11:12:52;22.00;1.00
41324;DHT22;27073;51.128;4.220;2023-07-13T11:15:45;21.50;99.90
41324;DHT22;27073;51.128;4.220;2023-07-13T11:18:23;21.50;1.00
41324;DHT22;27073;51.128;4.220;2023-07-13T11:20:51;20.90;15.10
41324;DHT22;27073;51.128;4.220;2023-07-13T11:23:20;20.30;45.60
41324;DHT22;27073;51.128;4.220;2023-07-13T11:25:52;19.90;71.90
41324;DHT22;27073;51.128;4.220;2023-07-13T11:28:22;19.20;93.10
41324;DHT22;27073;51.128;4.220;2023-07-13T11:33:25;18.00;99.90
41324;DHT22;27073;51.128;4.220;2023-07-13T11:36:03;17.50;99.90
41324;DHT22;27073;51.128;4.220;2023-07-13T11:38:36;17.20;99.90
41324;DHT22;27073;51.128;4.220;2023-07-13T11:41:26;17.20;99.90
41324;DHT22;27073;51.128;4.220;2023-07-13T11:43:55;17.20;99.90
41324;DHT22;27073;51.128;4.220;2023-07-13T11:46:28;17.10;99.90
41324;DHT22;27073;51.128;4.220;2023-07-13T11:48:54;17.10;99.90
41324;DHT22;27073;51.128;4.220;2023-07-13T11:51:34;17.20;99.90
41324;DHT22;27073;51.128;4.220;2023-07-13T11:54:10;17.30;99.90
41324;DHT22;27073;51.128;4.220;2023-07-13T11:56:39;17.20;99.90
41324;DHT22;27073;51.128;4.220;2023-07-13T11:59:07;17.20;99.90
41324;DHT22;27073;51.128;4.220;2023-07-13T12:01:34;17.20;99.90
41324;DHT22;27073;51.128;4.220;2023-07-13T12:04:03;17.20;99.90
41324;DHT22;27073;51.128;4.220;2023-07-13T12:06:34;17.30;99.90
41324;DHT22;27073;51.128;4.220;2023-07-13T12:09:13;17.50;99.90
41324;DHT22;27073;51.128;4.220;2023-07-13T12:11:43;17.60;99.90
41324;DHT22;27073;51.128;4.220;2023-07-13T12:14:15;17.70;99.90
41324;DHT22;27073;51.128;4.220;2023-07-13T12:16:42;17.70;99.90
41324;DHT22;27073;51.128;4.220;2023-07-13T12:21:44;18.40;99.90
41324;DHT22;27073;51.128;4.220;2023-07-13T12:24:18;18.40;99.90
41324;DHT22;27073;51.128;4.220;2023-07-13T12:26:44;18.50;99.90
41324;DHT22;27073;51.128;4.220;2023-07-13T12:29:16;18.70;99.90
41324;DHT22;27073;51.128;4.220;2023-07-13T12:31:45;18.90;99.90
41324;DHT22;27073;51.128;4.220;2023-07-13T12:34:17;18.70;99.90
41324;DHT22;27073;51.128;4.220;2023-07-13T12:36:54;18.70;99.90
41324;DHT22;27073;51.128;4.220;2023-07-13T12:40:05;19.00;99.90
41324;DHT22;27073;51.128;4.220;2023-07-13T12:42:26;19.10;99.90
41324;DHT22;27073;51.128;4.220;2023-07-13T12:47:42;19.40;99.90
41324;DHT22;27073;51.128;4.220;2023-07-13T12:50:17;19.50;99.90
41324;DHT22;27073;51.128;4.220;2023-07-13T12:52:44;19.30;99.90
41324;DHT22;27073;51.128;4.220;2023-07-13T12:55:20;19.30;99.90
41324;DHT22;27073;51.128;4.220;2023-07-13T12:57:55;19.70;99.90
41324;DHT22;27073;51.128;4.220;2023-07-13T13:03:33;20.30;99.90
41324;DHT22;27073;51.128;4.220;2023-07-13T13:08:47;20.80;99.90
41324;DHT22;27073;51.128;4.220;2023-07-13T13:11:17;20.90;99.90
41324;DHT22;27073;51.128;4.220;2023-07-13T13:13:44;21.10;99.90
41324;DHT22;27073;51.128;4.220;2023-07-13T13:16:29;21.40;98.20
41324;DHT22;27073;51.128;4.220;2023-07-13T13:18:59;21.10;95.40
41324;DHT22;27073;51.128;4.220;2023-07-13T13:21:28;21.00;99.90
41324;DHT22;27073;51.128;4.220;2023-07-13T13:23:54;20.90;95.80
41324;DHT22;27073;51.128;4.220;2023-07-13T13:26:21;21.10;95.40
41324;DHT22;27073;51.128;4.220;2023-07-13T13:28:47;21.30;94.30
41324;DHT22;27073;51.128;4.220;2023-07-13T13:31:14;22.00;95.10
41324;DHT22;27073;51.128;4.220;2023-07-13T13:33:42;22.00;84.90
41324;DHT22;27073;51.128;4.220;2023-07-13T13:36:17;22.20;92.00
41324;DHT22;27073;51.128;4.220;2023-07-13T13:38:43;21.90;85.20
41324;DHT22;27073;51.128;4.220;2023-07-13T13:41:11;21.90;90.40
41324;DHT22;27073;51.128;4.220;2023-07-13T13:43:39;21.70;85.50
41324;DHT22;27073;51.128;4.220;2023-07-13T13:46:22;21.80;73.00
41324;DHT22;27073;51.128;4.220;2023-07-13T13:48:50;22.20;73.70
41324;DHT22;27073;51.128;4.220;2023-07-13T13:51:19;22.00;66.10
41324;DHT22;27073;51.128;4.220;2023-07-13T13:53:46;21.80;69.50
41324;DHT22;27073;51.128;4.220;2023-07-13T13:56:17;21.40;74.30
41324;DHT22;27073;51.128;4.220;2023-07-13T13:58:43;21.40;77.20
41324;DHT22;27073;51.128;4.220;2023-07-13T14:01:16;21.50;75.80
41324;DHT22;27073;51.128;4.220;2023-07-13T14:03:43;21.40;81.40
41324;DHT22;27073;51.128;4.220;2023-07-13T14:06:15;21.70;79.50
41324;DHT22;27073;51.128;4.220;2023-07-13T14:08:42;22.00;69.10
41324;DHT22;27073;51.128;4.220;2023-07-13T14:11:20;22.30;60.00
41324;DHT22;27073;51.128;4.220;2023-07-13T14:13:53;23.20;59.00
41324;DHT22;27073;51.128;4.220;2023-07-13T14:16:22;23.80;45.40
41324;DHT22;27073;51.128;4.220;2023-07-13T14:18:48;23.50;31.20
41324;DHT22;27073;51.128;4.220;2023-07-13T14:21:17;23.40;34.00
41324;DHT22;27073;51.128;4.220;2023-07-13T14:23:45;22.80;51.40
41324;DHT22;27073;51.128;4.220;2023-07-13T14:26:19;22.40;56.00
41324;DHT22;27073;51.128;4.220;2023-07-13T14:28:48;22.00;58.60
41324;DHT22;27073;51.128;4.220;2023-07-13T14:31:15;22.10;72.10
41324;DHT22;27073;51.128;4.220;2023-07-13T14:33:41;22.20;63.00
41324;DHT22;27073;51.128;4.220;2023-07-13T14:36:35;22.50;60.20
41324;DHT22;27073;51.128;4.220;2023-07-13T14:39:14;22.40;62.00
41324;DHT22;27073;51.128;4.220;2023-07-13T14:41:40;23.90;48.60
41324;DHT22;27073;51.128;4.220;2023-07-13T14:44:26;25.70;4.60
41324;DHT22;27073;51.128;4.220;2023-07-13T14:46:54;25.30;1.00
41324;DHT22;27073;51.128;4.220;2023-07-13T14:49:24;24.60;1.00
41324;DHT22;27073;51.128;4.220;2023-07-13T14:51:51;24.40;4.90
41324;DHT22;27073;51.128;4.220;2023-07-13T14:54:16;24.10;9.00
41324;DHT22;27073;51.128;4.220;2023-07-13T14:56:42;24.20;15.00
41324;DHT22;27073;51.128;4.220;2023-07-13T14:59:08;24.60;17.50
41324;DHT22;27073;51.128;4.220;2023-07-13T15:01:35;24.70;4.00
41324;DHT22;27073;51.128;4.220;2023-07-13T15:04:02;26.80;1.00
41324;DHT22;27073;51.128;4.220;2023-07-13T15:06:28;29.10;1.00
41324;DHT22;27073;51.128;4.220;2023-07-13T15:08:54;29.20;99.90
41324;DHT22;27073;51.128;4.220;2023-07-13T15:11:21;28.80;99.90
41324;DHT22;27073;51.128;4.220;2023-07-13T15:13:47;28.40;99.90
41324;DHT22;27073;51.128;4.220;2023-07-13T15:16:23;28.10;99.90
41324;DHT22;27073;51.128;4.220;2023-07-13T15:18:49;27.50;99.90
41324;DHT22;27073;51.128;4.220;2023-07-13T15:21:21;26.80;99.90
41324;DHT22;27073;51.128;4.220;2023-07-13T15:23:48;26.20;1.00
41324;DHT22;27073;51.128;4.220;2023-07-13T15:26:15;26.00;1.00
41324;DHT22;27073;51.128;4.220;2023-07-13T15:28:45;26.40;1.00
41324;DHT22;27073;51.128;4.220;2023-07-13T15:31:22;27.50;99.90
41324;DHT22;27073;51.128;4.220;2023-07-13T15:33:49;27.90;99.90
41324;DHT22;27073;51.128;4.220;2023-07-13T15:36:17;28.20;99.90
41324;DHT22;27073;51.128;4.220;2023-07-13T15:38:43;27.30;99.90
41324;DHT22;27073;51.128;4.220;2023-07-13T15:41:20;26.80;99.90
41324;DHT22;27073;51.128;4.220;2023-07-13T15:43:47;26.80;1.00
41324;DHT22;27073;51.128;4.220;2023-07-13T15:46:13;26.70;99.90
41324;DHT22;27073;51.128;4.220;2023-07-13T15:48:39;26.70;1.00
41324;DHT22;27073;51.128;4.220;2023-07-13T15:51:08;26.50;99.90
41324;DHT22;27073;51.128;4.220;2023-07-13T15:53:38;26.60;1.00
41324;DHT22;27073;51.128;4.220;2023-07-13T15:56:19;26.40;1.00
41324;DHT22;27073;51.128;4.220;2023-07-13T15:58:46;26.20;1.00
41324;DHT22;27073;51.128;4.220;2023-07-13T16:01:12;27.00;99.90
41324;DHT22;27073;51.128;4.220;2023-07-13T16:03:39;27.20;99.90
41324;DHT22;27073;51.128;4.220;2023-07-13T16:06:32;27.20;99.90
41324;DHT22;27073;51.128;4.220;2023-07-13T16:08:57;27.30;99.90
41324;DHT22;27073;51.128;4.220;2023-07-13T16:11:30;26.80;99.90
41324;DHT22;27073;51.128;4.220;2023-07-13T16:13:58;26.00;99.90
41324;DHT22;27073;51.128;4.220;2023-07-13T16:16:27;24.90;1.00
41324;DHT22;27073;51.128;4.220;2023-07-13T16:19:02;24.50;99.90